sensor_id;sensor_type;location;lat;lon;timestamp;P1;durP1;ratioP1;P2;durP2;ratioP2
21084;SDS011;72320;50.082;20.000;2024-02-23T00:00:53;3.30;;;3.20;;
21084;SDS011;72320;50.082;20.000;2024-02-23T00:03:19;3.60;;;3.50;;
21084;SDS011;72320;50.082;20.000;2024-02-23T00:05:45;3.30;;;3.20;;
21084;SDS011;72320;50.082;20.000;2024-02-23T00:08:10;3.30;;;3.20;;
21084;SDS011;72320;50.082;20.000;2024-02-23T00:10:36;3.30;;;3.20;;
21084;SDS011;72320;50.082;20.000;2024-02-23T00:13:02;3.40;;;3.30;;
21084;SDS011;72320;50.082;20.000;2024-02-23T00:54:48;3.50;;;3.40;;
21084;SDS011;72320;50.082;20.000;2024-02-23T00:57:14;3.20;;;3.10;;
21084;SDS011;72320;50.082;20.000;2024-02-23T00:59:41;3.30;;;3.20;;
21084;SDS011;72320;50.082;20.000;2024-02-23T01:02:07;3.60;;;3.50;;
21084;SDS011;72320;50.082;20.000;2024-02-23T01:04:32;3.90;;;3.70;;
21084;SDS011;72320;50.082;20.000;2024-02-23T01:06:58;3.80;;;3.70;;
21084;SDS011;72320;50.082;20.000;2024-02-23T01:09:24;3.30;;;3.20;;
21084;SDS011;72320;50.082;20.000;2024-02-23T01:11:50;3.50;;;3.40;;
21084;SDS011;72320;50.082;20.000;2024-02-23T01:14:16;3.80;;;3.60;;
21084;SDS011;72320;50.082;20.000;2024-02-23T01:16:42;3.50;;;3.30;;
21084;SDS011;72320;50.082;20.000;2024-02-23T01:19:08;3.50;;;3.30;;
21084;SDS011;72320;50.082;20.000;2024-02-23T01:21:34;3.40;;;3.30;;
21084;SDS011;72320;50.082;20.000;2024-02-23T01:24:00;3.40;;;3.30;;
21084;SDS011;72320;50.082;20.000;2024-02-23T01:26:26;3.70;;;3.60;;
21084;SDS011;72320;50.082;20.000;2024-02-23T01:28:53;3.30;;;3.20;;
21084;SDS011;72320;50.082;20.000;2024-02-23T01:31:19;3.60;;;3.50;;
21084;SDS011;72320;50.082;20.000;2024-02-23T01:33:45;3.70;;;3.60;;
21084;SDS011;72320;50.082;20.000;2024-02-23T01:36:11;3.60;;;3.50;;
21084;SDS011;72320;50.082;20.000;2024-02-23T01:38:37;3.70;;;3.60;;
21084;SDS011;72320;50.082;20.000;2024-02-23T01:41:03;3.50;;;3.40;;
21084;SDS011;72320;50.082;20.000;2024-02-23T01:43:29;3.60;;;3.50;;
21084;SDS011;72320;50.082;20.000;2024-02-23T01:45:55;3.90;;;3.80;;
21084;SDS011;72320;50.082;20.000;2024-02-23T01:48:21;3.80;;;3.70;;
21084;SDS011;72320;50.082;20.000;2024-02-23T01:50:47;4.00;;;3.80;;
21084;SDS011;72320;50.082;20.000;2024-02-23T01:53:13;3.70;;;3.60;;
21084;SDS011;72320;50.082;20.000;2024-02-23T01:55:41;3.80;;;3.70;;
21084;SDS011;72320;50.082;20.000;2024-02-23T01:58:07;3.40;;;3.30;;
21084;SDS011;72320;50.082;20.000;2024-02-23T02:00:34;3.40;;;3.30;;
21084;SDS011;72320;50.082;20.000;2024-02-23T02:03:01;3.70;;;3.60;;
21084;SDS011;72320;50.082;20.000;2024-02-23T02:05:27;3.50;;;3.40;;
21084;SDS011;72320;50.082;20.000;2024-02-23T02:07:55;3.70;;;3.50;;
21084;SDS011;72320;50.082;20.000;2024-02-23T02:10:25;4.00;;;3.80;;
21084;SDS011;72320;50.082;20.000;2024-02-23T02:12:52;3.90;;;3.70;;
21084;SDS011;72320;50.082;20.000;2024-02-23T02:15:18;3.90;;;3.70;;
21084;SDS011;72320;50.082;20.000;2024-02-23T02:17:45;3.60;;;3.50;;
21084;SDS011;72320;50.082;20.000;2024-02-23T02:20:12;3.90;;;3.80;;
21084;SDS011;72320;50.082;20.000;2024-02-23T02:22:39;3.50;;;3.40;;
21084;SDS011;72320;50.082;20.000;2024-02-23T02:25:06;4.10;;;3.90;;
21084;SDS011;72320;50.082;20.000;2024-02-23T02:27:32;3.70;;;3.60;;
21084;SDS011;72320;50.082;20.000;2024-02-23T02:29:58;3.90;;;3.80;;
21084;SDS011;72320;50.082;20.000;2024-02-23T02:32:24;3.80;;;3.70;;
21084;SDS011;72320;50.082;20.000;2024-02-23T02:34:50;4.00;;;3.80;;
21084;SDS011;72320;50.082;20.000;2024-02-23T02:37:16;3.90;;;3.70;;
21084;SDS011;72320;50.082;20.000;2024-02-23T02:39:42;3.70;;;3.60;;
21084;SDS011;72320;50.082;20.000;2024-02-23T02:42:08;3.70;;;3.60;;
21084;SDS011;72320;50.082;20.000;2024-02-23T02:44:34;3.90;;;3.80;;
21084;SDS011;72320;50.082;20.000;2024-02-23T02:47:00;3.60;;;3.50;;
21084;SDS011;72320;50.082;20.000;2024-02-23T02:49:26;3.80;;;3.60;;
21084;SDS011;72320;50.082;20.000;2024-02-23T02:51:52;3.80;;;3.70;;
21084;SDS011;72320;50.082;20.000;2024-02-23T02:54:18;3.90;;;3.80;;
21084;SDS011;72320;50.082;20.000;2024-02-23T02:56:44;3.90;;;3.70;;
21084;SDS011;72320;50.082;20.000;2024-02-23T02:59:12;3.80;;;3.70;;
21084;SDS011;72320;50.082;20.000;2024-02-23T03:01:39;3.60;;;3.50;;
21084;SDS011;72320;50.082;20.000;2024-02-23T03:04:05;3.50;;;3.40;;
21084;SDS011;72320;50.082;20.000;2024-02-23T03:06:31;3.60;;;3.50;;
21084;SDS011;72320;50.082;20.000;2024-02-23T03:08:57;3.70;;;3.60;;
21084;SDS011;72320;50.082;20.000;2024-02-23T03:11:23;3.80;;;3.70;;
21084;SDS011;72320;50.082;20.000;2024-02-23T03:13:48;3.70;;;3.60;;
21084;SDS011;72320;50.082;20.000;2024-02-23T03:16:18;4.00;;;3.80;;
21084;SDS011;72320;50.082;20.000;2024-02-23T03:18:44;3.70;;;3.50;;
21084;SDS011;72320;50.082;20.000;2024-02-23T03:21:11;3.80;;;3.60;;
21084;SDS011;72320;50.082;20.000;2024-02-23T03:23:36;3.50;;;3.40;;
21084;SDS011;72320;50.082;20.000;2024-02-23T03:26:03;3.60;;;3.50;;
21084;SDS011;72320;50.082;20.000;2024-02-23T03:28:29;3.40;;;3.30;;
21084;SDS011;72320;50.082;20.000;2024-02-23T03:30:54;3.60;;;3.40;;
21084;SDS011;72320;50.082;20.000;2024-02-23T03:33:20;3.30;;;3.20;;
21084;SDS011;72320;50.082;20.000;2024-02-23T03:35:46;3.60;;;3.40;;
21084;SDS011;72320;50.082;20.000;2024-02-23T03:38:12;3.50;;;3.40;;
21084;SDS011;72320;50.082;20.000;2024-02-23T03:40:37;3.70;;;3.60;;
21084;SDS011;72320;50.082;20.000;2024-02-23T03:43:04;3.50;;;3.40;;
21084;SDS011;72320;50.082;20.000;2024-02-23T03:45:31;3.60;;;3.50;;
21084;SDS011;72320;50.082;20.000;2024-02-23T03:47:57;3.50;;;3.30;;
21084;SDS011;72320;50.082;20.000;2024-02-23T03:50:23;3.50;;;3.40;;
21084;SDS011;72320;50.082;20.000;2024-02-23T03:52:49;3.40;;;3.30;;
21084;SDS011;72320;50.082;20.000;2024-02-23T03:55:15;3.70;;;3.60;;
21084;SDS011;72320;50.082;20.000;2024-02-23T03:57:41;4.00;;;3.80;;
21084;SDS011;72320;50.082;20.000;2024-02-23T04:00:07;4.10;;;3.90;;
21084;SDS011;72320;50.082;20.000;2024-02-23T04:02:34;3.80;;;3.70;;
21084;SDS011;72320;50.082;20.000;2024-02-23T04:05:00;3.90;;;3.80;;
21084;SDS011;72320;50.082;20.000;2024-02-23T04:07:26;3.70;;;3.60;;
21084;SDS011;72320;50.082;20.000;2024-02-23T04:09:52;3.50;;;3.30;;
21084;SDS011;72320;50.082;20.000;2024-02-23T04:12:29;3.70;;;3.50;;
21084;SDS011;72320;50.082;20.000;2024-02-23T04:14:56;3.40;;;3.30;;
21084;SDS011;72320;50.082;20.000;2024-02-23T04:17:22;3.40;;;3.30;;
21084;SDS011;72320;50.082;20.000;2024-02-23T04:19:48;3.60;;;3.50;;
21084;SDS011;72320;50.082;20.000;2024-02-23T04:22:13;3.50;;;3.40;;
21084;SDS011;72320;50.082;20.000;2024-02-23T04:24:40;3.70;;;3.50;;
21084;SDS011;72320;50.082;20.000;2024-02-23T04:27:07;3.50;;;3.40;;
21084;SDS011;72320;50.082;20.000;2024-02-23T04:29:34;3.90;;;3.70;;
21084;SDS011;72320;50.082;20.000;2024-02-23T04:32:01;3.80;;;3.60;;
21084;SDS011;72320;50.082;20.000;2024-02-23T04:34:30;3.50;;;3.40;;
21084;SDS011;72320;50.082;20.000;2024-02-23T04:36:56;3.60;;;3.50;;
21084;SDS011;72320;50.082;20.000;2024-02-23T04:39:22;3.70;;;3.60;;
21084;SDS011;72320;50.082;20.000;2024-02-23T04:41:48;4.20;;;4.00;;
21084;SDS011;72320;50.082;20.000;2024-02-23T04:44:13;3.50;;;3.40;;
21084;SDS011;72320;50.082;20.000;2024-02-23T04:46:39;3.50;;;3.40;;
21084;SDS011;72320;50.082;20.000;2024-02-23T04:49:05;3.90;;;3.70;;
21084;SDS011;72320;50.082;20.000;2024-02-23T04:51:31;3.80;;;3.70;;
21084;SDS011;72320;50.082;20.000;2024-02-23T04:53:56;3.90;;;3.80;;
21084;SDS011;72320;50.082;20.000;2024-02-23T04:56:22;3.70;;;3.60;;
21084;SDS011;72320;50.082;20.000;2024-02-23T04:58:48;3.80;;;3.70;;
21084;SDS011;72320;50.082;20.000;2024-02-23T05:01:15;3.70;;;3.60;;
21084;SDS011;72320;50.082;20.000;2024-02-23T05:03:40;3.70;;;3.60;;
21084;SDS011;72320;50.082;20.000;2024-02-23T05:06:06;3.70;;;3.50;;
21084;SDS011;72320;50.082;20.000;2024-02-23T05:08:32;4.00;;;3.80;;
21084;SDS011;72320;50.082;20.000;2024-02-23T05:10:58;3.90;;;3.80;;
21084;SDS011;72320;50.082;20.000;2024-02-23T05:13:24;4.00;;;3.80;;
21084;SDS011;72320;50.082;20.000;2024-02-23T05:15:50;4.00;;;3.80;;
21084;SDS011;72320;50.082;20.000;2024-02-23T05:18:16;4.00;;;3.80;;
21084;SDS011;72320;50.082;20.000;2024-02-23T05:20:42;4.10;;;3.90;;
21084;SDS011;72320;50.082;20.000;2024-02-23T05:23:08;3.80;;;3.70;;
21084;SDS011;72320;50.082;20.000;2024-02-23T05:25:34;4.00;;;3.80;;
21084;SDS011;72320;50.082;20.000;2024-02-23T05:28:00;4.00;;;3.80;;
21084;SDS011;72320;50.082;20.000;2024-02-23T05:30:26;4.20;;;4.00;;
21084;SDS011;72320;50.082;20.000;2024-02-23T05:32:57;4.30;;;4.10;;
21084;SDS011;72320;50.082;20.000;2024-02-23T05:35:29;4.10;;;3.90;;
21084;SDS011;72320;50.082;20.000;2024-02-23T05:37:55;4.10;;;3.90;;
21084;SDS011;72320;50.082;20.000;2024-02-23T05:40:21;4.40;;;4.20;;
21084;SDS011;72320;50.082;20.000;2024-02-23T05:42:47;4.50;;;4.30;;
21084;SDS011;72320;50.082;20.000;2024-02-23T05:45:15;4.30;;;4.10;;
21084;SDS011;72320;50.082;20.000;2024-02-23T05:47:41;4.30;;;4.10;;
21084;SDS011;72320;50.082;20.000;2024-02-23T05:50:08;4.30;;;4.10;;
21084;SDS011;72320;50.082;20.000;2024-02-23T05:52:35;4.40;;;4.20;;
21084;SDS011;72320;50.082;20.000;2024-02-23T05:55:03;4.60;;;4.40;;
21084;SDS011;72320;50.082;20.000;2024-02-23T05:57:29;4.50;;;4.30;;
21084;SDS011;72320;50.082;20.000;2024-02-23T05:59:55;4.30;;;4.10;;
21084;SDS011;72320;50.082;20.000;2024-02-23T06:02:24;4.50;;;4.30;;
21084;SDS011;72320;50.082;20.000;2024-02-23T06:04:51;4.20;;;4.00;;
21084;SDS011;72320;50.082;20.000;2024-02-23T06:07:16;4.50;;;4.30;;
21084;SDS011;72320;50.082;20.000;2024-02-23T06:09:43;4.30;;;4.10;;
21084;SDS011;72320;50.082;20.000;2024-02-23T06:12:09;4.20;;;4.00;;
21084;SDS011;72320;50.082;20.000;2024-02-23T06:14:35;4.20;;;4.00;;
21084;SDS011;72320;50.082;20.000;2024-02-23T06:17:02;4.30;;;4.10;;
21084;SDS011;72320;50.082;20.000;2024-02-23T06:19:29;4.20;;;4.00;;
21084;SDS011;72320;50.082;20.000;2024-02-23T06:21:55;4.50;;;4.30;;
21084;SDS011;72320;50.082;20.000;2024-02-23T06:24:20;4.30;;;4.10;;
21084;SDS011;72320;50.082;20.000;2024-02-23T06:26:46;4.40;;;4.20;;
21084;SDS011;72320;50.082;20.000;2024-02-23T06:29:14;4.40;;;4.20;;
21084;SDS011;72320;50.082;20.000;2024-02-23T06:31:40;4.40;;;4.20;;
21084;SDS011;72320;50.082;20.000;2024-02-23T06:34:07;4.30;;;4.10;;
21084;SDS011;72320;50.082;20.000;2024-02-23T06:36:33;4.30;;;4.10;;
21084;SDS011;72320;50.082;20.000;2024-02-23T06:38:59;4.40;;;4.20;;
21084;SDS011;72320;50.082;20.000;2024-02-23T06:41:25;5.10;;;4.90;;
21084;SDS011;72320;50.082;20.000;2024-02-23T06:43:51;4.50;;;4.30;;
21084;SDS011;72320;50.082;20.000;2024-02-23T06:46:21;4.70;;;4.50;;
21084;SDS011;72320;50.082;20.000;2024-02-23T06:48:48;4.30;;;4.10;;
21084;SDS011;72320;50.082;20.000;2024-02-23T06:51:13;4.20;;;4.00;;
21084;SDS011;72320;50.082;20.000;2024-02-23T06:53:41;4.40;;;4.20;;
21084;SDS011;72320;50.082;20.000;2024-02-23T06:56:07;4.90;;;4.70;;
21084;SDS011;72320;50.082;20.000;2024-02-23T06:58:34;4.70;;;4.50;;
21084;SDS011;72320;50.082;20.000;2024-02-23T07:01:01;4.80;;;4.60;;
21084;SDS011;72320;50.082;20.000;2024-02-23T07:03:28;4.70;;;4.50;;
21084;SDS011;72320;50.082;20.000;2024-02-23T07:05:55;5.00;;;4.80;;
21084;SDS011;72320;50.082;20.000;2024-02-23T07:08:21;4.50;;;4.30;;
21084;SDS011;72320;50.082;20.000;2024-02-23T07:10:47;4.50;;;4.30;;
21084;SDS011;72320;50.082;20.000;2024-02-23T07:13:12;4.40;;;4.20;;
21084;SDS011;72320;50.082;20.000;2024-02-23T07:15:38;3.80;;;3.60;;
21084;SDS011;72320;50.082;20.000;2024-02-23T07:18:04;4.40;;;4.20;;
21084;SDS011;72320;50.082;20.000;2024-02-23T07:20:30;4.20;;;4.00;;
21084;SDS011;72320;50.082;20.000;2024-02-23T07:22:56;4.20;;;4.00;;
21084;SDS011;72320;50.082;20.000;2024-02-23T07:25:22;4.30;;;4.10;;
21084;SDS011;72320;50.082;20.000;2024-02-23T07:27:48;4.10;;;3.90;;
21084;SDS011;72320;50.082;20.000;2024-02-23T07:30:15;4.00;;;3.80;;
21084;SDS011;72320;50.082;20.000;2024-02-23T07:32:42;4.20;;;4.00;;
21084;SDS011;72320;50.082;20.000;2024-02-23T07:35:09;4.20;;;4.00;;
21084;SDS011;72320;50.082;20.000;2024-02-23T07:37:36;4.10;;;3.90;;
21084;SDS011;72320;50.082;20.000;2024-02-23T07:40:03;3.90;;;3.70;;
21084;SDS011;72320;50.082;20.000;2024-02-23T07:42:30;4.10;;;3.90;;
21084;SDS011;72320;50.082;20.000;2024-02-23T07:44:57;4.10;;;3.90;;
21084;SDS011;72320;50.082;20.000;2024-02-23T07:47:23;4.20;;;4.00;;
21084;SDS011;72320;50.082;20.000;2024-02-23T07:49:49;3.80;;;3.60;;
21084;SDS011;72320;50.082;20.000;2024-02-23T07:52:15;4.30;;;4.10;;
21084;SDS011;72320;50.082;20.000;2024-02-23T07:54:41;4.70;;;4.40;;
21084;SDS011;72320;50.082;20.000;2024-02-23T07:57:07;4.80;;;4.60;;
21084;SDS011;72320;50.082;20.000;2024-02-23T07:59:33;5.20;;;4.90;;
21084;SDS011;72320;50.082;20.000;2024-02-23T08:01:59;4.80;;;4.60;;
21084;SDS011;72320;50.082;20.000;2024-02-23T08:04:25;4.40;;;4.10;;
21084;SDS011;72320;50.082;20.000;2024-02-23T08:06:50;4.20;;;4.00;;
21084;SDS011;72320;50.082;20.000;2024-02-23T08:09:19;4.40;;;4.10;;
21084;SDS011;72320;50.082;20.000;2024-02-23T08:11:47;4.40;;;4.20;;
21084;SDS011;72320;50.082;20.000;2024-02-23T08:14:16;4.20;;;4.00;;
21084;SDS011;72320;50.082;20.000;2024-02-23T08:16:42;4.40;;;4.20;;
21084;SDS011;72320;50.082;20.000;2024-02-23T08:19:08;4.30;;;4.10;;
21084;SDS011;72320;50.082;20.000;2024-02-23T08:21:34;4.40;;;4.10;;
21084;SDS011;72320;50.082;20.000;2024-02-23T08:23:59;4.80;;;4.50;;
21084;SDS011;72320;50.082;20.000;2024-02-23T08:26:25;4.50;;;4.30;;
21084;SDS011;72320;50.082;20.000;2024-02-23T08:28:51;4.40;;;4.20;;
21084;SDS011;72320;50.082;20.000;2024-02-23T08:31:17;4.30;;;4.10;;
21084;SDS011;72320;50.082;20.000;2024-02-23T08:33:43;4.30;;;4.10;;
21084;SDS011;72320;50.082;20.000;2024-02-23T08:36:10;4.30;;;4.10;;
21084;SDS011;72320;50.082;20.000;2024-02-23T08:38:36;4.40;;;4.20;;
21084;SDS011;72320;50.082;20.000;2024-02-23T08:41:02;4.10;;;3.90;;
21084;SDS011;72320;50.082;20.000;2024-02-23T08:43:28;4.40;;;4.20;;
21084;SDS011;72320;50.082;20.000;2024-02-23T08:45:54;3.90;;;3.70;;
21084;SDS011;72320;50.082;20.000;2024-02-23T08:48:19;4.50;;;4.30;;
21084;SDS011;72320;50.082;20.000;2024-02-23T08:50:45;4.30;;;4.10;;
21084;SDS011;72320;50.082;20.000;2024-02-23T08:53:11;4.30;;;4.10;;
21084;SDS011;72320;50.082;20.000;2024-02-23T08:55:37;4.40;;;4.20;;
21084;SDS011;72320;50.082;20.000;2024-02-23T08:58:03;4.30;;;4.10;;
21084;SDS011;72320;50.082;20.000;2024-02-23T09:00:28;4.20;;;4.00;;
21084;SDS011;72320;50.082;20.000;2024-02-23T09:02:54;4.20;;;4.00;;
21084;SDS011;72320;50.082;20.000;2024-02-23T09:05:20;4.30;;;4.10;;
21084;SDS011;72320;50.082;20.000;2024-02-23T09:07:46;4.70;;;4.50;;
21084;SDS011;72320;50.082;20.000;2024-02-23T09:10:12;4.60;;;4.40;;
21084;SDS011;72320;50.082;20.000;2024-02-23T09:12:38;4.40;;;4.20;;
21084;SDS011;72320;50.082;20.000;2024-02-23T09:15:04;4.70;;;4.50;;
21084;SDS011;72320;50.082;20.000;2024-02-23T09:17:30;4.70;;;4.50;;
21084;SDS011;72320;50.082;20.000;2024-02-23T09:19:57;4.50;;;4.30;;
21084;SDS011;72320;50.082;20.000;2024-02-23T09:22:23;4.80;;;4.50;;
21084;SDS011;72320;50.082;20.000;2024-02-23T09:24:49;4.80;;;4.50;;
21084;SDS011;72320;50.082;20.000;2024-02-23T09:27:15;4.60;;;4.40;;
21084;SDS011;72320;50.082;20.000;2024-02-23T09:29:41;5.00;;;4.70;;
21084;SDS011;72320;50.082;20.000;2024-02-23T09:32:08;4.80;;;4.60;;
21084;SDS011;72320;50.082;20.000;2024-02-23T09:34:34;4.90;;;4.60;;
21084;SDS011;72320;50.082;20.000;2024-02-23T09:36:59;4.60;;;4.40;;
21084;SDS011;72320;50.082;20.000;2024-02-23T09:39:25;4.60;;;4.40;;
21084;SDS011;72320;50.082;20.000;2024-02-23T09:41:56;4.60;;;4.40;;
21084;SDS011;72320;50.082;20.000;2024-02-23T09:44:32;4.30;;;4.10;;
21084;SDS011;72320;50.082;20.000;2024-02-23T09:47:01;4.70;;;4.40;;
21084;SDS011;72320;50.082;20.000;2024-02-23T09:49:43;5.30;;;5.00;;
21084;SDS011;72320;50.082;20.000;2024-02-23T09:52:12;4.40;;;4.20;;
21084;SDS011;72320;50.082;20.000;2024-02-23T09:54:39;4.20;;;4.00;;
21084;SDS011;72320;50.082;20.000;2024-02-23T09:57:07;4.40;;;4.20;;
21084;SDS011;72320;50.082;20.000;2024-02-23T09:59:35;4.60;;;4.40;;
21084;SDS011;72320;50.082;20.000;2024-02-23T10:02:07;4.20;;;4.00;;
21084;SDS011;72320;50.082;20.000;2024-02-23T10:04:38;4.30;;;4.10;;
21084;SDS011;72320;50.082;20.000;2024-02-23T10:07:06;4.30;;;4.10;;
21084;SDS011;72320;50.082;20.000;2024-02-23T10:09:32;4.20;;;4.00;;
21084;SDS011;72320;50.082;20.000;2024-02-23T10:11:58;4.50;;;4.30;;
21084;SDS011;72320;50.082;20.000;2024-02-23T10:14:24;4.40;;;4.20;;
21084;SDS011;72320;50.082;20.000;2024-02-23T10:16:50;4.80;;;4.60;;
21084;SDS011;72320;50.082;20.000;2024-02-23T10:19:19;4.30;;;4.10;;
21084;SDS011;72320;50.082;20.000;2024-02-23T10:21:46;4.30;;;4.10;;
21084;SDS011;72320;50.082;20.000;2024-02-23T10:24:12;4.40;;;4.20;;
21084;SDS011;72320;50.082;20.000;2024-02-23T10:26:41;4.10;;;3.90;;
21084;SDS011;72320;50.082;20.000;2024-02-23T10:29:07;4.20;;;4.00;;
21084;SDS011;72320;50.082;20.000;2024-02-23T10:31:37;4.30;;;4.10;;
21084;SDS011;72320;50.082;20.000;2024-02-23T10:34:07;4.30;;;4.10;;
21084;SDS011;72320;50.082;20.000;2024-02-23T10:36:42;4.00;;;3.80;;
21084;SDS011;72320;50.082;20.000;2024-02-23T10:39:08;4.10;;;3.90;;
21084;SDS011;72320;50.082;20.000;2024-02-23T10:41:35;4.20;;;4.00;;
21084;SDS011;72320;50.082;20.000;2024-02-23T10:44:03;4.00;;;3.80;;
21084;SDS011;72320;50.082;20.000;2024-02-23T10:46:32;4.10;;;3.90;;
21084;SDS011;72320;50.082;20.000;2024-02-23T10:48:58;4.00;;;3.80;;
21084;SDS011;72320;50.082;20.000;2024-02-23T10:51:25;3.80;;;3.60;;
21084;SDS011;72320;50.082;20.000;2024-02-23T10:53:52;3.80;;;3.60;;
21084;SDS011;72320;50.082;20.000;2024-02-23T10:56:18;3.80;;;3.60;;
21084;SDS011;72320;50.082;20.000;2024-02-23T10:58:45;4.10;;;3.90;;
21084;SDS011;72320;50.082;20.000;2024-02-23T11:01:12;4.00;;;3.80;;
21084;SDS011;72320;50.082;20.000;2024-02-23T11:03:42;3.80;;;3.60;;
21084;SDS011;72320;50.082;20.000;2024-02-23T11:06:12;4.10;;;3.90;;
21084;SDS011;72320;50.082;20.000;2024-02-23T11:08:38;4.20;;;4.00;;
21084;SDS011;72320;50.082;20.000;2024-02-23T11:11:11;3.70;;;3.50;;
21084;SDS011;72320;50.082;20.000;2024-02-23T11:13:40;3.80;;;3.60;;
21084;SDS011;72320;50.082;20.000;2024-02-23T11:16:08;3.90;;;3.70;;
21084;SDS011;72320;50.082;20.000;2024-02-23T11:18:35;3.90;;;3.70;;
21084;SDS011;72320;50.082;20.000;2024-02-23T11:21:05;4.10;;;3.90;;
21084;SDS011;72320;50.082;20.000;2024-02-23T11:23:53;4.00;;;3.80;;
21084;SDS011;72320;50.082;20.000;2024-02-23T11:26:22;4.00;;;3.80;;
21084;SDS011;72320;50.082;20.000;2024-02-23T11:28:52;4.00;;;3.80;;
21084;SDS011;72320;50.082;20.000;2024-02-23T11:31:21;4.20;;;4.00;;
21084;SDS011;72320;50.082;20.000;2024-02-23T11:33:56;4.20;;;4.00;;
21084;SDS011;72320;50.082;20.000;2024-02-23T11:38:53;4.60;;;4.40;;
21084;SDS011;72320;50.082;20.000;2024-02-23T11:41:23;4.00;;;3.80;;
21084;SDS011;72320;50.082;20.000;2024-02-23T11:43:53;4.10;;;3.90;;
21084;SDS011;72320;50.082;20.000;2024-02-23T11:46:26;4.00;;;3.70;;
21084;SDS011;72320;50.082;20.000;2024-02-23T11:48:52;4.10;;;3.90;;
21084;SDS011;72320;50.082;20.000;2024-02-23T11:51:21;3.60;;;3.40;;
21084;SDS011;72320;50.082;20.000;2024-02-23T11:53:49;4.00;;;3.80;;
21084;SDS011;72320;50.082;20.000;2024-02-23T11:56:15;3.80;;;3.60;;
21084;SDS011;72320;50.082;20.000;2024-02-23T11:58:43;4.50;;;4.30;;
21084;SDS011;72320;50.082;20.000;2024-02-23T12:01:09;3.80;;;3.60;;
21084;SDS011;72320;50.082;20.000;2024-02-23T12:03:35;3.60;;;3.40;;
21084;SDS011;72320;50.082;20.000;2024-02-23T12:06:01;3.70;;;3.50;;
21084;SDS011;72320;50.082;20.000;2024-02-23T12:08:30;3.70;;;3.50;;
21084;SDS011;72320;50.082;20.000;2024-02-23T12:11:04;3.40;;;3.30;;
21084;SDS011;72320;50.082;20.000;2024-02-23T12:13:31;3.20;;;3.10;;
21084;SDS011;72320;50.082;20.000;2024-02-23T12:15:57;3.40;;;3.20;;
21084;SDS011;72320;50.082;20.000;2024-02-23T12:18:23;3.50;;;3.40;;
21084;SDS011;72320;50.082;20.000;2024-02-23T12:20:52;3.40;;;3.30;;
21084;SDS011;72320;50.082;20.000;2024-02-23T12:23:18;3.50;;;3.30;;
21084;SDS011;72320;50.082;20.000;2024-02-23T12:25:56;3.30;;;3.20;;
21084;SDS011;72320;50.082;20.000;2024-02-23T12:28:23;3.20;;;3.10;;
21084;SDS011;72320;50.082;20.000;2024-02-23T12:31:05;3.30;;;3.20;;
21084;SDS011;72320;50.082;20.000;2024-02-23T12:33:33;3.60;;;3.50;;
21084;SDS011;72320;50.082;20.000;2024-02-23T12:36:01;3.70;;;3.50;;
21084;SDS011;72320;50.082;20.000;2024-02-23T12:38:28;4.00;;;3.80;;
21084;SDS011;72320;50.082;20.000;2024-02-23T12:40:54;3.30;;;3.20;;
21084;SDS011;72320;50.082;20.000;2024-02-23T12:43:21;3.40;;;3.20;;
21084;SDS011;72320;50.082;20.000;2024-02-23T12:45:53;3.40;;;3.30;;
21084;SDS011;72320;50.082;20.000;2024-02-23T12:48:22;3.40;;;3.30;;
21084;SDS011;72320;50.082;20.000;2024-02-23T12:50:49;3.10;;;3.00;;
21084;SDS011;72320;50.082;20.000;2024-02-23T12:53:38;3.20;;;3.10;;
21084;SDS011;72320;50.082;20.000;2024-02-23T12:56:07;3.40;;;3.30;;
21084;SDS011;72320;50.082;20.000;2024-02-23T12:58:39;3.50;;;3.40;;
21084;SDS011;72320;50.082;20.000;2024-02-23T13:01:06;3.70;;;3.50;;
21084;SDS011;72320;50.082;20.000;2024-02-23T13:03:33;3.70;;;3.50;;
21084;SDS011;72320;50.082;20.000;2024-02-23T13:06:01;3.50;;;3.40;;
21084;SDS011;72320;50.082;20.000;2024-02-23T13:08:28;3.40;;;3.20;;
21084;SDS011;72320;50.082;20.000;2024-02-23T13:10:54;3.30;;;3.20;;
21084;SDS011;72320;50.082;20.000;2024-02-23T13:13:21;3.50;;;3.30;;
21084;SDS011;72320;50.082;20.000;2024-02-23T13:15:50;3.50;;;3.40;;
21084;SDS011;72320;50.082;20.000;2024-02-23T13:18:16;3.30;;;3.20;;
21084;SDS011;72320;50.082;20.000;2024-02-23T13:20:43;3.40;;;3.30;;
21084;SDS011;72320;50.082;20.000;2024-02-23T13:23:10;3.30;;;3.20;;
21084;SDS011;72320;50.082;20.000;2024-02-23T13:25:40;3.50;;;3.40;;
21084;SDS011;72320;50.082;20.000;2024-02-23T13:28:08;3.50;;;3.30;;
21084;SDS011;72320;50.082;20.000;2024-02-23T13:30:35;3.40;;;3.20;;
21084;SDS011;72320;50.082;20.000;2024-02-23T13:33:02;3.80;;;3.60;;
21084;SDS011;72320;50.082;20.000;2024-02-23T13:35:28;3.50;;;3.40;;
21084;SDS011;72320;50.082;20.000;2024-02-23T13:37:55;3.70;;;3.60;;
21084;SDS011;72320;50.082;20.000;2024-02-23T13:40:22;4.00;;;3.80;;
21084;SDS011;72320;50.082;20.000;2024-02-23T13:42:48;3.90;;;3.70;;
21084;SDS011;72320;50.082;20.000;2024-02-23T13:45:16;4.10;;;3.90;;
21084;SDS011;72320;50.082;20.000;2024-02-23T13:47:43;3.90;;;3.70;;
21084;SDS011;72320;50.082;20.000;2024-02-23T13:50:23;3.90;;;3.70;;
21084;SDS011;72320;50.082;20.000;2024-02-23T13:52:49;3.90;;;3.70;;
21084;SDS011;72320;50.082;20.000;2024-02-23T13:55:15;3.70;;;3.50;;
21084;SDS011;72320;50.082;20.000;2024-02-23T13:57:41;4.00;;;3.80;;
21084;SDS011;72320;50.082;20.000;2024-02-23T14:00:07;3.90;;;3.70;;
21084;SDS011;72320;50.082;20.000;2024-02-23T14:02:38;3.50;;;3.40;;
21084;SDS011;72320;50.082;20.000;2024-02-23T14:05:06;3.70;;;3.50;;
21084;SDS011;72320;50.082;20.000;2024-02-23T14:07:33;3.50;;;3.40;;
21084;SDS011;72320;50.082;20.000;2024-02-23T14:09:59;3.40;;;3.30;;
21084;SDS011;72320;50.082;20.000;2024-02-23T14:12:26;3.50;;;3.30;;
21084;SDS011;72320;50.082;20.000;2024-02-23T14:14:52;3.40;;;3.30;;
21084;SDS011;72320;50.082;20.000;2024-02-23T14:17:17;3.50;;;3.30;;
21084;SDS011;72320;50.082;20.000;2024-02-23T14:19:43;3.80;;;3.60;;
21084;SDS011;72320;50.082;20.000;2024-02-23T14:22:09;4.50;;;4.30;;
21084;SDS011;72320;50.082;20.000;2024-02-23T14:24:35;4.10;;;3.90;;
21084;SDS011;72320;50.082;20.000;2024-02-23T14:27:01;3.50;;;3.40;;
21084;SDS011;72320;50.082;20.000;2024-02-23T14:29:27;3.70;;;3.50;;
21084;SDS011;72320;50.082;20.000;2024-02-23T14:31:53;3.60;;;3.50;;
21084;SDS011;72320;50.082;20.000;2024-02-23T14:34:19;3.70;;;3.50;;
21084;SDS011;72320;50.082;20.000;2024-02-23T14:36:48;3.90;;;3.70;;
21084;SDS011;72320;50.082;20.000;2024-02-23T14:39:13;3.60;;;3.40;;
21084;SDS011;72320;50.082;20.000;2024-02-23T14:41:39;3.50;;;3.40;;
21084;SDS011;72320;50.082;20.000;2024-02-23T14:44:05;3.70;;;3.50;;
21084;SDS011;72320;50.082;20.000;2024-02-23T14:46:31;3.50;;;3.40;;
21084;SDS011;72320;50.082;20.000;2024-02-23T14:48:57;3.80;;;3.60;;
21084;SDS011;72320;50.082;20.000;2024-02-23T14:51:22;4.20;;;4.00;;
21084;SDS011;72320;50.082;20.000;2024-02-23T14:53:48;4.20;;;4.00;;
21084;SDS011;72320;50.082;20.000;2024-02-23T14:56:14;4.30;;;4.10;;
21084;SDS011;72320;50.082;20.000;2024-02-23T14:58:40;4.40;;;4.20;;
21084;SDS011;72320;50.082;20.000;2024-02-23T15:01:06;3.90;;;3.70;;
21084;SDS011;72320;50.082;20.000;2024-02-23T15:03:32;4.30;;;4.10;;
21084;SDS011;72320;50.082;20.000;2024-02-23T15:05:59;4.40;;;4.20;;
21084;SDS011;72320;50.082;20.000;2024-02-23T15:08:27;4.30;;;4.10;;
21084;SDS011;72320;50.082;20.000;2024-02-23T15:10:53;5.70;;;5.40;;
21084;SDS011;72320;50.082;20.000;2024-02-23T15:13:19;4.50;;;4.30;;